Swiss BCS3 at Zurich on Jan 9th 2023, lightning strike

Last Update: January 10, 2023 / 11:58:30 GMT/Zulu time

Bookmark this article
Incident Facts

Date of incident
Jan 9, 2023

Classification
Incident

Flight number
LX-2032

Destination
Madrid, Spain

Aircraft Registration
HB-JCP

Aircraft Type
Airbus A220-300

ICAO Type Designator
BCS3

Airport ICAO Code
LSZH

A Swiss International Airlines Bombardier C-Series CS-300, registration HB-JCP performing flight LX-2032 from Zurich (Switzerland) to Madrid,SP (Spain), was climbing out of Zurich's runway 32 when the crew stopped the climb at FL120 due to a lightning strike and returned to Zurich for a safe landing on runway 28 about 45 minutes after departure.

The rotation was cancelled.

The occurrence aircraft is still on the ground in Zurich about 19 hours after landing back.

Metars:
LSZH 091920Z 24010KT 9999 -SHRA FEW010 SCT025 BKN075 03/01 Q1012 TEMPO SHRA=
LSZH 091850Z 24013KT 9999 -SHRA FEW010 SCT015 BKN030 03/02 Q1012 RESHRA TEMPO SHRA=
LSZH 091820Z 23008KT 9999 -SHRA FEW010 BKN025 04/02 Q1012 TEMPO SHRA=
LSZH 091750Z 23007KT 190V260 9999 -SHRA FEW010 BKN020 04/02 Q1011 TEMPO SHRA=
LSZH 091720Z 22007KT 190V250 8000 -SHRA FEW010 BKN030 04/02 Q1011 TEMPO SHRA=
LSZH 091650Z 21007KT 9999 VCSH FEW010 BKN035 04/02 Q1010 TEMPO SHRA=
LSZH 091620Z 25005KT 180V280 9999 -SHRA FEW010 FEW020TCU BKN035 04/02 Q1010 RESHRA TEMPO SHRA=
LSZH 091550Z 25015KT 230V290 9000 1000N R14/P2000N R16/P2000N R28/P2000N R34/P2000N SHRA FEW020CB BKN050 05/02 Q1010 RETS TEMPO 2000=
LSZH 091520Z 23010KT 9999 VCSH FEW020TCU SCT045 05/01 Q1008 TEMPO SHRA=
LSZH 091450Z 24010KT 210V270 9999 FEW020TCU SCT050 06/01 Q1008 TEMPO SHRA=
LSZH 091420Z 25010KT 210V290 9999 VCSH FEW020TCU 06/01 Q1007 TEMPO SHRA=
LSZH 091350Z 24012KT 9999 FEW020 06/02 Q1007 TEMPO SHRA=
LSZH 091320Z 24013KT 9999 FEW018 SCT044 BKN050 07/02 Q1007 TEMPO SHRA SCT030TCU=
Aircraft Registration Data
Registration mark
HB-JCP
Country of Registration
Switzerland
Date of Registration
Mpqb kcbfnlnpjm Subscribe to unlock
Certification Basis
Airworthyness Category
LmeipAihAjphipmA Subscribe to unlock
Legal Basis
TCDS Ident. No.
JngAhAhcpll l Subscribe to unlock
Manufacturer
C SERIES AIRCRAFT LIMITED PARTNERSHIP
Aircraft Model / Type
BD-500-1A11
ICAO Aircraft Type
BCS3
Year of Manufacture
Serial Number
Aircraft Address / Mode S Code (HEX)
Max. Operational Passenger Seating Capacity (MOPSC), indicative
Minimum Crew
Maximum Take off Mass (MTOM) [kg]
Engine Count
Engine
JcAmeikbgdnj eceqeqqnmljhkmbcAihfbpkkp Subscribe to unlock
Main Owner
Mpkhligqqgmqiqhfhqgnjndkbligqnlgdljbq gjndgdlmegjefmkeqdghki j fc Subscribe to unlock
Main Operator
IdliillhkphjlnmkqllbAdgleqfAhe cjhdmkApijAAqnipnhmphjgnbbkg gqq lknA bhp Subscribe to unlock
Incident Facts

Date of incident
Jan 9, 2023

Classification
Incident

Flight number
LX-2032

Destination
Madrid, Spain

Aircraft Registration
HB-JCP

Aircraft Type
Airbus A220-300

ICAO Type Designator
BCS3

Airport ICAO Code
LSZH

This article is published under license from Avherald.com. © of text by Avherald.com.
Article source

You can read 2 more free articles without a subscription.

Subscribe now and continue reading without any limits!

Are you a subscriber? Login
Subscribe

Read unlimited articles and receive our daily update briefing. Gain better insights into what is happening in commercial aviation safety.

Send tip

Support AeroInside by sending a small tip amount.

Related articles

Newest articles

Subscribe today

Are you researching aviation incidents? Get access to AeroInside Insights, unlimited read access and receive the daily newsletter.

Pick your plan and subscribe

Partner

Blockaviation logo

A new way to document and demonstrate airworthiness compliance and aircraft value. Find out more.

ELITE Logo

ELITE Simulation Solutions is a leading global provider of Flight Simulation Training Devices, IFR training software as well as flight controls and related services. Find out more.

Blue Altitude Logo

Your regulation partner, specialists in aviation safety and compliance; providing training, auditing, and consultancy services. Find out more.

AeroInside Blog
Popular aircraft
Airbus A320
Boeing 737-800
Boeing 737-800 MAX
Popular airlines
American Airlines
United
Delta
Air Canada
Lufthansa
British Airways